Crosby, Ohio
Current Conditions -  °F | °C
As of 3:15 PM on Friday 31 Oct 2014 (Local Time) from KI67 Reporting Station
Overcast Overcast  
Wind Chill: 36°   Ceiling: 4500
Heat Index: 41°   Visibility: 10mi
Dew Point: 36°   Wind: 7mph
Humidity: 81%   Direction: 320°NW
Pressure: 29.94"   Gusts: 16mph
Location:  39.2734°N, 84.7476°W
Report Text: KI67 311915Z AUTO 32006G14KT 280V340 10SM SCT020 BKN045 OVC050 05/02 A2994 RMK AO1
Loading
Personal Weather Stations






























Interactive Weather Map
Tropical Storm Tracking
New forecast layout! Learn more

10-Day Weather Forecast

Advertisements
Track Severe Weather on mobile